createdAt,value
2018-08-03T00:00:26.213Z,1017.83
2018-08-03T00:01:06.789Z,1017.84
2018-08-03T00:01:47.355Z,1017.86
2018-08-03T00:02:27.945Z,1017.88
2018-08-03T00:03:08.514Z,1017.87
2018-08-03T00:03:49.086Z,1017.89
2018-08-03T00:04:29.653Z,1017.88
2018-08-03T00:05:10.241Z,1017.91
2018-08-03T00:05:50.819Z,1017.87
2018-08-03T00:06:31.422Z,1017.89
2018-08-03T00:07:12.001Z,1017.89
2018-08-03T00:07:52.580Z,1017.9
2018-08-03T00:08:33.150Z,1017.89
2018-08-03T00:09:13.758Z,1017.9
2018-08-03T00:09:54.330Z,1017.9
2018-08-03T00:10:34.909Z,1017.91
2018-08-03T00:11:15.478Z,1017.91
2018-08-03T00:11:56.054Z,1017.89
2018-08-03T00:12:36.624Z,1017.9
2018-08-03T00:13:17.198Z,1017.87
2018-08-03T00:13:57.771Z,1017.9
2018-08-03T00:14:38.342Z,1017.88
2018-08-03T00:15:18.919Z,1017.88
2018-08-03T00:15:59.477Z,1017.85
2018-08-03T00:16:40.054Z,1017.89
2018-08-03T00:17:20.618Z,1017.85
2018-08-03T00:18:01.187Z,1017.86
2018-08-03T00:18:41.759Z,1017.87
2018-08-03T00:19:22.325Z,1017.87
2018-08-03T00:20:02.892Z,1017.82
2018-08-03T00:20:43.462Z,1017.85
2018-08-03T00:21:24.037Z,1017.86
2018-08-03T00:22:04.605Z,1017.83
2018-08-03T00:22:45.182Z,1017.82
2018-08-03T00:23:25.781Z,1017.85
2018-08-03T00:24:06.354Z,1017.84
2018-08-03T00:24:46.944Z,1017.78
2018-08-03T00:25:27.539Z,1017.78
2018-08-03T00:26:08.100Z,1017.74
2018-08-03T00:26:48.675Z,1017.78
2018-08-03T00:27:29.288Z,1017.79
2018-08-03T00:28:09.797Z,1017.74
2018-08-03T00:28:50.371Z,1017.74
2018-08-03T00:29:30.946Z,1017.79
2018-08-03T00:30:11.527Z,1017.73
2018-08-03T00:30:52.091Z,1017.73
2018-08-03T00:31:32.652Z,1017.74
2018-08-03T00:32:13.240Z,1017.75
2018-08-03T00:32:53.812Z,1017.72
2018-08-03T00:33:34.433Z,1017.74
2018-08-03T00:34:14.937Z,1017.71
2018-08-03T00:34:55.512Z,1017.75
2018-08-03T00:35:36.085Z,1017.7
2018-08-03T00:36:16.650Z,1017.73
2018-08-03T00:36:57.206Z,1017.73
2018-08-03T00:37:37.801Z,1017.7
2018-08-03T00:38:18.388Z,1017.72
2018-08-03T00:38:58.957Z,1017.72
2018-08-03T00:39:39.545Z,1017.67
2018-08-03T00:40:20.131Z,1017.69
2018-08-03T00:41:00.749Z,1017.72
2018-08-03T00:41:41.344Z,1017.7
2018-08-03T00:42:21.931Z,1017.71
2018-08-03T00:43:02.499Z,1017.7
2018-08-03T00:43:43.088Z,1017.75
2018-08-03T00:44:23.700Z,1017.74
2018-08-03T00:45:04.249Z,1017.73
2018-08-03T00:45:44.832Z,1017.72
2018-08-03T00:46:25.399Z,1017.77
2018-08-03T00:47:05.964Z,1017.73
2018-08-03T00:47:46.546Z,1017.72
2018-08-03T00:48:27.120Z,1017.71
2018-08-03T00:49:07.682Z,1017.68
2018-08-03T00:49:48.262Z,1017.68
2018-08-03T00:50:28.826Z,1017.69
2018-08-03T00:51:09.415Z,1017.62
2018-08-03T00:51:50.021Z,1017.67
2018-08-03T00:52:30.633Z,1017.63
2018-08-03T00:53:11.204Z,1017.64
2018-08-03T00:53:51.782Z,1017.67
2018-08-03T00:54:32.470Z,1017.69
2018-08-03T00:55:13.082Z,1017.7
2018-08-03T00:55:53.761Z,1017.72
2018-08-03T00:56:34.346Z,1017.73
2018-08-03T00:57:14.965Z,1017.76
2018-08-03T00:57:55.537Z,1017.78
2018-08-03T00:58:36.106Z,1017.78
2018-08-03T00:59:16.702Z,1017.86
2018-08-03T00:59:57.301Z,1017.85
2018-08-03T01:00:38.073Z,1017.86
2018-08-03T01:01:18.657Z,1017.83
2018-08-03T01:01:59.227Z,1017.87
2018-08-03T01:02:39.801Z,1017.89
2018-08-03T01:03:20.417Z,1017.88
2018-08-03T01:04:01.226Z,1017.91
2018-08-03T01:04:41.799Z,1017.92
2018-08-03T01:05:22.357Z,1017.93
2018-08-03T01:06:02.956Z,1017.95
2018-08-03T01:06:43.536Z,1017.96
2018-08-03T01:07:24.119Z,1018.02
2018-08-03T01:08:04.719Z,1018.01
2018-08-03T01:08:45.305Z,1018.02
2018-08-03T01:09:25.929Z,1017.99
2018-08-03T01:10:06.494Z,1018
2018-08-03T01:10:47.080Z,1017.99
2018-08-03T01:11:27.650Z,1017.98
2018-08-03T01:12:08.221Z,1017.99
2018-08-03T01:12:48.933Z,1017.97
2018-08-03T01:13:29.508Z,1017.96
2018-08-03T01:14:10.074Z,1017.95
2018-08-03T01:14:50.698Z,1017.98
2018-08-03T01:15:31.286Z,1017.97
2018-08-03T01:16:11.850Z,1017.99
2018-08-03T01:16:52.416Z,1017.98
2018-08-03T01:17:32.976Z,1017.98
2018-08-03T01:18:13.547Z,1017.98
2018-08-03T01:18:54.104Z,1017.95
2018-08-03T01:19:34.677Z,1017.92
2018-08-03T01:20:15.246Z,1017.95
2018-08-03T01:20:55.801Z,1017.94
2018-08-03T01:21:36.358Z,1017.96
2018-08-03T01:22:16.920Z,1017.94
2018-08-03T01:22:57.489Z,1017.96
2018-08-03T01:23:38.070Z,1017.97
2018-08-03T01:24:18.647Z,1017.95
2018-08-03T01:24:59.220Z,1017.94
2018-08-03T01:25:39.851Z,1017.97
2018-08-03T01:26:20.422Z,1017.98
2018-08-03T01:27:01.013Z,1017.97
2018-08-03T01:27:41.649Z,1017.97
2018-08-03T01:28:22.188Z,1017.93
2018-08-03T01:29:02.744Z,1017.93
2018-08-03T01:29:43.335Z,1017.94
2018-08-03T01:30:23.900Z,1017.89
2018-08-03T01:31:04.486Z,1017.89
2018-08-03T01:31:45.057Z,1017.92
2018-08-03T01:32:25.627Z,1017.91
2018-08-03T01:33:06.197Z,1017.92
2018-08-03T01:33:46.774Z,1017.89
2018-08-03T01:34:27.333Z,1017.87
2018-08-03T01:35:07.913Z,1017.9
2018-08-03T01:35:48.465Z,1017.93
2018-08-03T01:36:29.017Z,1017.95
2018-08-03T01:37:09.589Z,1017.96
2018-08-03T01:37:50.180Z,1017.95
2018-08-03T01:38:30.727Z,1017.95
2018-08-03T01:39:11.292Z,1017.99
2018-08-03T01:39:51.863Z,1017.98
2018-08-03T01:40:32.426Z,1017.96
2018-08-03T01:41:12.996Z,1017.96
2018-08-03T01:41:53.567Z,1017.96
2018-08-03T01:42:34.133Z,1017.95
2018-08-03T01:43:14.693Z,1017.97
2018-08-03T01:43:55.260Z,1017.96
2018-08-03T01:44:35.829Z,1017.9
2018-08-03T01:45:16.420Z,1017.95
2018-08-03T01:45:56.982Z,1017.95
2018-08-03T01:46:37.543Z,1017.9
2018-08-03T01:47:18.115Z,1017.95
2018-08-03T01:47:58.695Z,1017.95
2018-08-03T01:48:39.308Z,1017.89
2018-08-03T01:49:19.902Z,1017.88
2018-08-03T01:50:00.495Z,1017.89
2018-08-03T01:50:41.047Z,1017.91
2018-08-03T01:51:21.607Z,1017.93
2018-08-03T01:52:02.178Z,1017.94
2018-08-03T01:52:42.748Z,1017.94
2018-08-03T01:53:23.321Z,1017.89
2018-08-03T01:54:03.905Z,1017.96
2018-08-03T01:54:44.466Z,1017.94
2018-08-03T01:55:25.041Z,1017.96
2018-08-03T01:56:05.610Z,1017.93
2018-08-03T01:56:46.189Z,1017.96
2018-08-03T01:57:26.764Z,1017.97
2018-08-03T01:58:07.371Z,1017.97
2018-08-03T01:58:47.953Z,1017.97
2018-08-03T01:59:28.523Z,1017.96
2018-08-03T02:00:09.166Z,1017.95
2018-08-03T02:00:49.729Z,1017.94
2018-08-03T02:01:30.305Z,1017.96
2018-08-03T02:02:10.866Z,1017.96
2018-08-03T02:02:51.429Z,1017.95
2018-08-03T02:03:32.008Z,1017.96
2018-08-03T02:04:12.568Z,1017.9
2018-08-03T02:04:53.140Z,1017.92
2018-08-03T02:05:33.705Z,1017.91
2018-08-03T02:06:14.277Z,1017.9
2018-08-03T02:06:54.839Z,1017.92
2018-08-03T02:07:35.418Z,1017.93
2018-08-03T02:08:15.990Z,1017.92
2018-08-03T02:08:56.567Z,1017.91
2018-08-03T02:09:37.138Z,1017.98
2018-08-03T02:10:17.728Z,1017.94
2018-08-03T02:10:58.321Z,1017.97
2018-08-03T02:11:38.900Z,1017.98
2018-08-03T02:12:19.486Z,1017.98
2018-08-03T02:13:00.052Z,1017.99
2018-08-03T02:13:40.630Z,1017.98
2018-08-03T02:14:21.190Z,1018.02
2018-08-03T02:15:01.766Z,1017.99
2018-08-03T02:15:42.336Z,1017.96
2018-08-03T02:16:22.902Z,1018
2018-08-03T02:17:03.472Z,1017.95
2018-08-03T02:17:44.039Z,1018.01
2018-08-03T02:18:24.606Z,1017.98
2018-08-03T02:19:05.166Z,1018.01
2018-08-03T02:19:45.743Z,1018.01
2018-08-03T02:20:26.312Z,1018.04
2018-08-03T02:21:06.884Z,1018.05
2018-08-03T02:21:47.433Z,1018.06
2018-08-03T02:22:28.010Z,1018.06
2018-08-03T02:23:08.581Z,1018.09
2018-08-03T02:23:49.162Z,1018.06
2018-08-03T02:24:29.727Z,1018.03
2018-08-03T02:25:10.306Z,1018.07
2018-08-03T02:25:50.871Z,1018.04
2018-08-03T02:26:31.439Z,1018.04
2018-08-03T02:27:11.977Z,1018.05
2018-08-03T02:27:52.614Z,1018.04
2018-08-03T02:28:33.185Z,1018.07
2018-08-03T02:29:13.816Z,1018.09
2018-08-03T02:29:54.434Z,1018.08
2018-08-03T02:30:35.000Z,1018.07
2018-08-03T02:31:15.553Z,1018.1
2018-08-03T02:31:56.138Z,1018.1
2018-08-03T02:32:36.717Z,1018.12
2018-08-03T02:33:17.336Z,1018.08
2018-08-03T02:33:57.903Z,1018.1
2018-08-03T02:34:38.476Z,1018.11
2018-08-03T02:35:19.037Z,1018.1
2018-08-03T02:35:59.610Z,1018.1
2018-08-03T02:36:40.183Z,1018.13
2018-08-03T02:37:20.751Z,1018.06
2018-08-03T02:38:01.317Z,1018.13
2018-08-03T02:38:41.906Z,1018.1
2018-08-03T02:39:22.680Z,1018.08
2018-08-03T02:40:03.246Z,1018.07
2018-08-03T02:40:43.817Z,1018.04
2018-08-03T02:41:24.370Z,1018.04
2018-08-03T02:42:04.930Z,1018.03
2018-08-03T02:42:45.500Z,1018.02
2018-08-03T02:43:26.071Z,1018
2018-08-03T02:44:06.630Z,1018.02
2018-08-03T02:44:47.205Z,1018.02
2018-08-03T02:45:27.775Z,1018.01
2018-08-03T02:46:08.372Z,1018
2018-08-03T02:46:48.975Z,1018.03
2018-08-03T02:47:29.561Z,1018.02
2018-08-03T02:48:10.102Z,1018.03
2018-08-03T02:48:50.670Z,1018.04
2018-08-03T02:49:31.258Z,1018.04
2018-08-03T02:50:11.888Z,1018.03
2018-08-03T02:50:52.445Z,1018.01
2018-08-03T02:51:33.019Z,1018.06
2018-08-03T02:52:13.591Z,1018.04
2018-08-03T02:52:54.189Z,1018.02
2018-08-03T02:53:34.761Z,1018.03
2018-08-03T02:54:15.395Z,1018.04
2018-08-03T02:54:56.013Z,1018.03
2018-08-03T02:55:36.590Z,1018
2018-08-03T02:56:17.329Z,1018.03
2018-08-03T02:56:57.878Z,1018.03
2018-08-03T02:57:38.462Z,1018.08
2018-08-03T02:58:19.038Z,1018.05
2018-08-03T02:58:59.613Z,1018.07
2018-08-03T02:59:40.182Z,1018.08
2018-08-03T03:00:20.794Z,1018.09
2018-08-03T03:01:01.342Z,1018.12
2018-08-03T03:01:41.938Z,1018.11
2018-08-03T03:02:22.526Z,1018.08
2018-08-03T03:03:03.099Z,1018.13
2018-08-03T03:03:43.665Z,1018.09
2018-08-03T03:04:24.237Z,1018.19
2018-08-03T03:05:04.812Z,1018.14
2018-08-03T03:05:45.385Z,1018.17
2018-08-03T03:06:25.967Z,1018.17
2018-08-03T03:07:06.540Z,1018.15
2018-08-03T03:07:47.130Z,1018.13
2018-08-03T03:08:27.713Z,1018.14
2018-08-03T03:09:08.277Z,1018.18
2018-08-03T03:09:48.838Z,1018.12
2018-08-03T03:10:29.426Z,1018.17
2018-08-03T03:11:09.989Z,1018.16
2018-08-03T03:11:50.569Z,1018.15
2018-08-03T03:12:31.140Z,1018.17
2018-08-03T03:13:11.699Z,1018.16
2018-08-03T03:13:52.272Z,1018.17
2018-08-03T03:14:32.843Z,1018.14
2018-08-03T03:15:13.414Z,1018.14
2018-08-03T03:15:54.013Z,1018.14
2018-08-03T03:16:34.587Z,1018.14
2018-08-03T03:17:15.170Z,1018.1
2018-08-03T03:17:55.802Z,1018.1
2018-08-03T03:18:36.479Z,1018.11
2018-08-03T03:19:17.112Z,1018.09
2018-08-03T03:19:57.750Z,1018.08
2018-08-03T03:20:38.608Z,1018.1
2018-08-03T03:21:19.171Z,1018.07
2018-08-03T03:21:59.741Z,1018.07
2018-08-03T03:22:40.353Z,1018.11
2018-08-03T03:23:20.923Z,1018.06
2018-08-03T03:24:01.528Z,1018.07
2018-08-03T03:24:42.130Z,1018.08
2018-08-03T03:25:22.794Z,1018.07
2018-08-03T03:26:03.371Z,1018.05
2018-08-03T03:26:43.964Z,1018.07
2018-08-03T03:27:24.618Z,1018.07
2018-08-03T03:28:05.211Z,1018.05
2018-08-03T03:28:45.815Z,1018.05
2018-08-03T03:29:26.392Z,1018.08
2018-08-03T03:30:06.947Z,1018.07
2018-08-03T03:30:47.517Z,1018.05
2018-08-03T03:31:28.085Z,1018.06
2018-08-03T03:32:08.642Z,1018.07
2018-08-03T03:32:49.208Z,1018.08
2018-08-03T03:33:29.808Z,1018.07
2018-08-03T03:34:10.346Z,1018.07
2018-08-03T03:34:50.973Z,1018.11
2018-08-03T03:35:31.737Z,1018.1
2018-08-03T03:36:12.328Z,1018.11
2018-08-03T03:36:52.982Z,1018.11
2018-08-03T03:37:33.590Z,1018.1
2018-08-03T03:38:14.224Z,1018.09
2018-08-03T03:38:54.867Z,1018.08
2018-08-03T03:39:35.433Z,1018.07
2018-08-03T03:40:16.010Z,1018.12
2018-08-03T03:40:56.702Z,1018.1
2018-08-03T03:41:37.338Z,1018.07
2018-08-03T03:42:17.932Z,1018.08
2018-08-03T03:42:58.524Z,1018.09
2018-08-03T03:43:39.100Z,1018.05
2018-08-03T03:44:19.696Z,1018.09
2018-08-03T03:45:00.260Z,1018.04
2018-08-03T03:45:40.952Z,1018.07
2018-08-03T03:46:21.450Z,1018.03
2018-08-03T03:47:02.013Z,1018.02
2018-08-03T03:47:42.588Z,1018.08
2018-08-03T03:48:23.147Z,1018.13
2018-08-03T03:49:03.707Z,1018.09
2018-08-03T03:49:44.293Z,1018.06
2018-08-03T03:50:24.871Z,1018.1
2018-08-03T03:51:05.478Z,1018.1
2018-08-03T03:51:46.034Z,1018.13
2018-08-03T03:52:26.599Z,1018.1
2018-08-03T03:53:07.153Z,1018.09
2018-08-03T03:53:47.713Z,1018.09
2018-08-03T03:54:28.288Z,1018.1
2018-08-03T03:55:08.861Z,1018.07
2018-08-03T03:55:49.440Z,1018.06
2018-08-03T03:56:30.003Z,1018.11
2018-08-03T03:57:10.585Z,1018.07
2018-08-03T03:57:51.154Z,1018.08
2018-08-03T03:58:31.732Z,1018.08
2018-08-03T03:59:12.360Z,1018.08
2018-08-03T03:59:52.903Z,1018.1
2018-08-03T04:00:33.468Z,1018.11
2018-08-03T04:01:14.040Z,1018.13
2018-08-03T04:01:54.615Z,1018.13
2018-08-03T04:02:35.168Z,1018.15
2018-08-03T04:03:15.735Z,1018.11
2018-08-03T04:03:56.347Z,1018.15
2018-08-03T04:04:36.948Z,1018.12
2018-08-03T04:05:17.531Z,1018.09
2018-08-03T04:05:58.097Z,1018.12
2018-08-03T04:06:38.655Z,1018.14
2018-08-03T04:07:19.220Z,1018.1
2018-08-03T04:07:59.803Z,1018.11
2018-08-03T04:08:40.368Z,1018.11
2018-08-03T04:09:20.929Z,1018.1
2018-08-03T04:10:01.485Z,1018.06
2018-08-03T04:10:42.059Z,1018.08
2018-08-03T04:11:22.630Z,1018.1
2018-08-03T04:12:03.205Z,1018.05
2018-08-03T04:12:43.820Z,1018.07
2018-08-03T04:13:24.427Z,1018.06
2018-08-03T04:14:05.023Z,1018.08
2018-08-03T04:14:45.576Z,1018.05
2018-08-03T04:15:26.141Z,1018.03
2018-08-03T04:16:06.694Z,1018.08
2018-08-03T04:16:47.256Z,1018.04
2018-08-03T04:17:27.819Z,1018.07
2018-08-03T04:18:08.379Z,1018.09
2018-08-03T04:18:48.941Z,1018.07
2018-08-03T04:19:29.533Z,1018.04
2018-08-03T04:20:10.062Z,1018.06
2018-08-03T04:20:50.627Z,1018.03
2018-08-03T04:21:31.196Z,1018.02
2018-08-03T04:22:11.781Z,1018.06
2018-08-03T04:22:52.342Z,1018.03
2018-08-03T04:23:32.916Z,1018
2018-08-03T04:24:13.489Z,1018.05
2018-08-03T04:24:54.051Z,1018.04
2018-08-03T04:25:34.673Z,1018.02
2018-08-03T04:26:15.174Z,1018.04
2018-08-03T04:26:55.736Z,1018.08
2018-08-03T04:27:36.306Z,1018.09
2018-08-03T04:28:16.863Z,1018.08
2018-08-03T04:28:57.429Z,1018.09
2018-08-03T04:29:38.053Z,1018.07
2018-08-03T04:30:18.555Z,1018.1
2018-08-03T04:30:59.119Z,1018.06
2018-08-03T04:31:39.716Z,1018.04
2018-08-03T04:32:20.355Z,1018.05
2018-08-03T04:33:00.962Z,1018.07
2018-08-03T04:33:41.561Z,1018.05
2018-08-03T04:34:22.125Z,1018.04
2018-08-03T04:35:02.698Z,1018.08
2018-08-03T04:35:43.271Z,1018.05
2018-08-03T04:36:23.854Z,1018.05
2018-08-03T04:37:04.432Z,1018.07
2018-08-03T04:37:45.093Z,1018.04
2018-08-03T04:38:25.693Z,1018.07
2018-08-03T04:39:06.385Z,1018.09
2018-08-03T04:39:47.004Z,1018.11
2018-08-03T04:40:27.608Z,1018.15
2018-08-03T04:41:08.260Z,1018.17
2018-08-03T04:41:48.968Z,1018.19
2018-08-03T04:42:29.618Z,1018.21
2018-08-03T04:43:10.207Z,1018.21
2018-08-03T04:43:50.787Z,1018.25
2018-08-03T04:44:31.513Z,1018.27
2018-08-03T04:45:12.069Z,1018.23
2018-08-03T04:45:52.684Z,1018.22
2018-08-03T04:46:33.286Z,1018.28
2018-08-03T04:47:13.984Z,1018.26
2018-08-03T04:47:54.580Z,1018.28
2018-08-03T04:48:35.255Z,1018.27
2018-08-03T04:49:15.779Z,1018.28
2018-08-03T04:49:56.345Z,1018.29
2018-08-03T04:50:36.920Z,1018.27
2018-08-03T04:51:17.495Z,1018.3
2018-08-03T04:51:58.065Z,1018.32
2018-08-03T04:52:38.659Z,1018.3
2018-08-03T04:53:19.212Z,1018.33
2018-08-03T04:53:59.752Z,1018.37
2018-08-03T04:54:40.347Z,1018.28
2018-08-03T04:55:20.886Z,1018.31
2018-08-03T04:56:01.454Z,1018.32
2018-08-03T04:56:42.023Z,1018.31
2018-08-03T04:57:22.585Z,1018.32
2018-08-03T04:58:03.146Z,1018.35
2018-08-03T04:58:43.734Z,1018.34
2018-08-03T04:59:24.293Z,1018.37
2018-08-03T05:00:04.866Z,1018.39
2018-08-03T05:00:45.444Z,1018.39
2018-08-03T05:01:26.078Z,1018.37
2018-08-03T05:02:06.631Z,1018.4
2018-08-03T05:02:47.200Z,1018.4
2018-08-03T05:03:27.752Z,1018.44
2018-08-03T05:04:08.336Z,1018.41
2018-08-03T05:04:48.962Z,1018.41
2018-08-03T05:05:29.488Z,1018.38
2018-08-03T05:06:10.061Z,1018.43
2018-08-03T05:06:50.637Z,1018.39
2018-08-03T05:07:31.267Z,1018.42
2018-08-03T05:08:11.821Z,1018.41
2018-08-03T05:08:52.417Z,1018.4
2018-08-03T05:09:33.254Z,1018.43
2018-08-03T05:10:13.829Z,1018.42
2018-08-03T05:10:54.497Z,1018.43
2018-08-03T05:11:35.066Z,1018.47
2018-08-03T05:12:15.645Z,1018.46
2018-08-03T05:12:56.254Z,1018.49
2018-08-03T05:13:36.850Z,1018.44
2018-08-03T05:14:17.438Z,1018.43
2018-08-03T05:14:58.020Z,1018.41
2018-08-03T05:15:38.587Z,1018.45
2018-08-03T05:16:19.187Z,1018.38
2018-08-03T05:16:59.755Z,1018.4
2018-08-03T05:17:40.324Z,1018.42
2018-08-03T05:18:20.900Z,1018.41
2018-08-03T05:19:01.470Z,1018.42
2018-08-03T05:19:42.098Z,1018.4
2018-08-03T05:20:22.756Z,1018.4
2018-08-03T05:21:03.393Z,1018.43
2018-08-03T05:21:44.199Z,1018.41
2018-08-03T05:22:24.853Z,1018.41
2018-08-03T05:23:05.446Z,1018.41
2018-08-03T05:23:46.074Z,1018.44
2018-08-03T05:24:26.661Z,1018.42
2018-08-03T05:25:07.235Z,1018.38
2018-08-03T05:25:47.800Z,1018.4
2018-08-03T05:26:28.375Z,1018.39
2018-08-03T05:27:08.924Z,1018.42
2018-08-03T05:27:49.492Z,1018.41
2018-08-03T05:28:30.071Z,1018.45
2018-08-03T05:29:10.660Z,1018.44
2018-08-03T05:29:51.350Z,1018.45
2018-08-03T05:30:31.811Z,1018.45
2018-08-03T05:31:12.335Z,1018.51
2018-08-03T05:31:52.906Z,1018.48
2018-08-03T05:32:33.471Z,1018.52
2018-08-03T05:33:14.045Z,1018.49
2018-08-03T05:33:54.622Z,1018.49
2018-08-03T05:34:35.190Z,1018.51
2018-08-03T05:35:15.768Z,1018.54
2018-08-03T05:35:56.383Z,1018.55
2018-08-03T05:36:36.918Z,1018.55
2018-08-03T05:37:17.478Z,1018.56
2018-08-03T05:37:58.032Z,1018.58
2018-08-03T05:38:38.600Z,1018.59
2018-08-03T05:39:19.168Z,1018.59
2018-08-03T05:39:59.738Z,1018.63
2018-08-03T05:40:40.354Z,1018.64
2018-08-03T05:41:20.943Z,1018.61
2018-08-03T05:42:01.597Z,1018.63
2018-08-03T05:42:42.237Z,1018.63
2018-08-03T05:43:22.821Z,1018.59
2018-08-03T05:44:03.391Z,1018.58
2018-08-03T05:44:43.962Z,1018.54
2018-08-03T05:45:24.577Z,1018.58
2018-08-03T05:46:05.102Z,1018.65
2018-08-03T05:46:45.653Z,1018.67
2018-08-03T05:47:26.220Z,1018.73
2018-08-03T05:48:06.801Z,1018.8
2018-08-03T05:48:47.379Z,1018.8
2018-08-03T05:49:27.982Z,1018.83
2018-08-03T05:50:08.602Z,1018.85
2018-08-03T05:50:49.151Z,1018.87
2018-08-03T05:51:29.705Z,1018.92
2018-08-03T05:52:10.285Z,1018.93
2018-08-03T05:52:50.864Z,1018.92
2018-08-03T05:53:31.437Z,1018.93
2018-08-03T05:54:12.008Z,1018.91
2018-08-03T05:54:52.589Z,1018.88
2018-08-03T05:55:33.170Z,1018.92
2018-08-03T05:56:13.747Z,1018.87
2018-08-03T05:56:54.316Z,1018.85
2018-08-03T05:57:34.859Z,1018.81
2018-08-03T05:58:15.431Z,1018.81
2018-08-03T05:58:55.997Z,1018.76
2018-08-03T05:59:36.568Z,1018.73
2018-08-03T06:00:17.127Z,1018.67
2018-08-03T06:00:57.694Z,1018.67
2018-08-03T06:01:38.274Z,1018.75
2018-08-03T06:02:18.891Z,1018.65
2018-08-03T06:02:59.454Z,1018.65
2018-08-03T06:03:40.042Z,1018.61
2018-08-03T06:04:20.603Z,1018.69
2018-08-03T06:05:01.159Z,1018.65
2018-08-03T06:05:41.735Z,1018.68
2018-08-03T06:06:22.303Z,1018.66
2018-08-03T06:07:02.885Z,1018.7
2018-08-03T06:07:43.455Z,1018.7
2018-08-03T06:08:24.025Z,1018.67
2018-08-03T06:09:04.624Z,1018.66
2018-08-03T06:09:45.320Z,1018.68
2018-08-03T06:10:25.925Z,1018.7
2018-08-03T06:11:06.479Z,1018.66
2018-08-03T06:11:47.114Z,1018.65
2018-08-03T06:12:27.622Z,1018.64
2018-08-03T06:13:08.169Z,1018.63
2018-08-03T06:13:48.756Z,1018.66
2018-08-03T06:14:29.320Z,1018.68
2018-08-03T06:15:09.935Z,1018.71
2018-08-03T06:15:50.637Z,1018.65
2018-08-03T06:16:31.190Z,1018.68
2018-08-03T06:17:11.785Z,1018.65
2018-08-03T06:17:52.366Z,1018.71
2018-08-03T06:18:33.205Z,1018.75
2018-08-03T06:19:14.233Z,1018.75
2018-08-03T06:19:54.859Z,1018.79
2018-08-03T06:20:35.477Z,1018.79
2018-08-03T06:21:16.086Z,1018.82
2018-08-03T06:21:56.679Z,1018.79
2018-08-03T06:22:37.254Z,1018.81
2018-08-03T06:23:17.825Z,1018.81
2018-08-03T06:23:58.410Z,1018.85
2018-08-03T06:24:39.468Z,1018.88
2018-08-03T06:25:20.014Z,1018.91
2018-08-03T06:26:00.582Z,1018.89
2018-08-03T06:26:41.140Z,1018.92
2018-08-03T06:27:21.782Z,1018.9
2018-08-03T06:28:02.487Z,1018.86
2018-08-03T06:28:43.167Z,1018.83
2018-08-03T06:29:23.847Z,1018.85
2018-08-03T06:30:04.418Z,1018.88
2018-08-03T06:30:44.990Z,1018.91
2018-08-03T06:31:25.670Z,1018.86
2018-08-03T06:32:07.269Z,1018.87
2018-08-03T06:32:49.305Z,1018.84
2018-08-03T06:33:30.475Z,1018.88
2018-08-03T06:34:11.385Z,1018.82
2018-08-03T06:34:53.416Z,1018.78
2018-08-03T06:35:34.886Z,1018.75
2018-08-03T06:36:16.553Z,1018.79
2018-08-03T06:36:58.708Z,1018.85
2018-08-03T06:37:40.780Z,1018.84
2018-08-03T06:38:21.947Z,1018.9
2018-08-03T06:39:04.685Z,1018.92
2018-08-03T06:39:47.016Z,1018.88
2018-08-03T06:40:28.871Z,1018.83
2018-08-03T06:41:10.803Z,1018.87
2018-08-03T06:41:52.994Z,1018.89
2018-08-03T06:42:33.827Z,1018.92
2018-08-03T06:43:15.493Z,1018.93
2018-08-03T06:43:56.910Z,1018.86
2018-08-03T06:44:39.513Z,1018.8
2018-08-03T06:45:21.918Z,1018.83
2018-08-03T06:46:03.451Z,1018.82
2018-08-03T06:46:45.298Z,1018.93
2018-08-03T06:47:27.212Z,1018.81
2018-08-03T06:48:09.217Z,1018.85
2018-08-03T06:48:50.343Z,1018.86
2018-08-03T06:49:31.645Z,1018.88
2018-08-03T06:50:13.451Z,1018.92
2018-08-03T06:50:56.456Z,1018.86
2018-08-03T06:51:37.807Z,1018.93
2018-08-03T06:52:20.102Z,1018.87
2018-08-03T06:53:01.534Z,1018.92
2018-08-03T06:53:42.946Z,1018.89
2018-08-03T06:54:24.325Z,1018.87
2018-08-03T06:55:06.827Z,1018.87
2018-08-03T06:55:50.614Z,1018.88
2018-08-03T06:56:32.826Z,1018.86
2018-08-03T06:57:14.738Z,1018.91
2018-08-03T06:57:55.981Z,1018.87
2018-08-03T06:58:38.144Z,1018.86
2018-08-03T06:59:19.642Z,1018.84
2018-08-03T07:00:01.118Z,1018.82
2018-08-03T07:00:43.557Z,1018.83
2018-08-03T07:01:25.487Z,1018.78
2018-08-03T07:02:08.553Z,1018.75
2018-08-03T07:02:52.557Z,1018.77
2018-08-03T07:03:33.784Z,1018.77
2018-08-03T07:04:14.857Z,1018.78
2018-08-03T07:04:56.220Z,1018.78
2018-08-03T07:05:38.092Z,1018.73
2018-08-03T07:06:20.091Z,1018.77
2018-08-03T07:07:01.327Z,1018.77
2018-08-03T07:07:42.800Z,1018.76
2018-08-03T07:08:24.103Z,1018.75
2018-08-03T07:09:06.104Z,1018.8
2018-08-03T07:09:48.018Z,1018.83
2018-08-03T07:10:30.259Z,1018.76
2018-08-03T07:11:15.239Z,1018.8
2018-08-03T07:11:57.314Z,1018.79
2018-08-03T07:12:38.590Z,1018.76
2018-08-03T07:13:19.770Z,1018.82
2018-08-03T07:14:02.990Z,1018.71
2018-08-03T07:14:44.274Z,1018.74
2018-08-03T07:15:26.298Z,1018.72
2018-08-03T07:16:07.966Z,1018.71
2018-08-03T07:16:49.216Z,1018.71
2018-08-03T07:17:31.008Z,1018.73
2018-08-03T07:18:12.277Z,1018.72
2018-08-03T07:18:53.930Z,1018.68
2018-08-03T07:19:35.771Z,1018.68
2018-08-03T07:20:16.981Z,1018.7
2018-08-03T07:20:58.129Z,1018.67
2018-08-03T07:21:39.263Z,1018.67
2018-08-03T07:22:20.696Z,1018.68
2018-08-03T07:23:03.825Z,1018.65
2018-08-03T07:23:45.593Z,1018.69
2018-08-03T07:24:26.760Z,1018.68
2018-08-03T07:25:08.030Z,1018.69
2018-08-03T07:25:49.333Z,1018.69
2018-08-03T07:26:31.028Z,1018.64
2018-08-03T07:27:12.874Z,1018.69
2018-08-03T07:27:54.208Z,1018.7
2018-08-03T07:28:38.639Z,1018.68
2018-08-03T07:29:19.935Z,1018.7
2018-08-03T07:30:02.131Z,1018.7
2018-08-03T07:30:43.995Z,1018.68
2018-08-03T07:31:25.202Z,1018.68
2018-08-03T07:32:06.323Z,1018.68
2018-08-03T07:32:47.701Z,1018.7
2018-08-03T07:33:30.153Z,1018.69
2018-08-03T07:34:12.026Z,1018.69
2018-08-03T07:34:53.914Z,1018.72
2018-08-03T07:35:35.261Z,1018.68
2018-08-03T07:36:16.438Z,1018.69
2018-08-03T07:36:57.507Z,1018.64
2018-08-03T07:37:39.572Z,1018.68
2018-08-03T07:38:20.680Z,1018.67
2018-08-03T07:39:01.288Z,1018.65
2018-08-03T07:39:41.856Z,1018.66
2018-08-03T07:40:22.503Z,1018.66
2018-08-03T07:41:03.100Z,1018.7
2018-08-03T07:41:43.670Z,1018.71
2018-08-03T07:42:24.291Z,1018.68
2018-08-03T07:43:05.018Z,1018.66
2018-08-03T07:43:45.571Z,1018.67
2018-08-03T07:44:26.078Z,1018.66
2018-08-03T07:45:06.805Z,1018.68
2018-08-03T07:45:47.234Z,1018.67
2018-08-03T07:46:27.857Z,1018.66
2018-08-03T07:47:08.454Z,1018.69
2018-08-03T07:47:49.034Z,1018.7
2018-08-03T07:48:29.608Z,1018.73
2018-08-03T07:49:10.189Z,1018.69
2018-08-03T07:49:50.765Z,1018.71
2018-08-03T07:50:31.336Z,1018.67
2018-08-03T07:51:11.935Z,1018.67
2018-08-03T07:51:52.541Z,1018.66
2018-08-03T07:52:33.139Z,1018.67
2018-08-03T07:53:13.746Z,1018.63
2018-08-03T07:53:54.336Z,1018.65
2018-08-03T07:54:34.953Z,1018.65
2018-08-03T07:57:03.204Z,1018.65
2018-08-03T07:57:43.783Z,1018.63
2018-08-03T07:58:24.436Z,1018.65
2018-08-03T07:59:05.023Z,1018.58
2018-08-03T07:59:45.648Z,1018.59
2018-08-03T08:00:26.214Z,1018.63
2018-08-03T08:01:06.777Z,1018.65
2018-08-03T08:01:47.348Z,1018.64
2018-08-03T08:02:28.057Z,1018.69
2018-08-03T08:03:08.658Z,1018.68
2018-08-03T08:03:49.244Z,1018.68
2018-08-03T08:04:29.811Z,1018.63
2018-08-03T08:05:10.385Z,1018.64
2018-08-03T08:05:51.110Z,1018.67
2018-08-03T08:06:31.699Z,1018.64
2018-08-03T08:07:12.315Z,1018.66
2018-08-03T08:07:52.882Z,1018.66
2018-08-03T08:08:33.570Z,1018.61
2018-08-03T08:09:14.137Z,1018.62
2018-08-03T08:09:54.678Z,1018.61
2018-08-03T08:10:35.247Z,1018.59
2018-08-03T08:11:15.883Z,1018.65
2018-08-03T08:11:56.434Z,1018.59
2018-08-03T08:12:37.016Z,1018.66
2018-08-03T08:13:17.591Z,1018.61
2018-08-03T08:13:58.166Z,1018.64
2018-08-03T08:14:38.746Z,1018.67
2018-08-03T08:15:19.456Z,1018.62
2018-08-03T08:15:59.909Z,1018.65
2018-08-03T08:16:41.122Z,1018.59